Time,TemperatureF,DewpointF,PressureIn,WindDirection,WindDirectionDegrees,WindSpeedMPH,WindSpeedGustMPH,Humidity,HourlyPrecipIn,Conditions,Clouds,dailyrainin,SoftwareType,DateUTC
2013-08-05 00:01:00,63.0,55.6,29.69,North,0,0.0,0.0,77,0.00,,,0.00,WUHU216HW,2013-08-05 07:01:00,
2013-08-05 00:06:00,62.8,55.4,29.69,North,0,0.0,0.0,77,0.00,,,0.00,WUHU216HW,2013-08-05 07:06:00,
2013-08-05 00:11:00,62.6,55.6,29.69,North,0,0.0,0.0,78,0.00,,,0.00,WUHU216HW,2013-08-05 07:11:00,
2013-08-05 00:16:00,62.5,55.8,29.69,North,0,0.0,0.0,79,0.00,,,0.00,WUHU216HW,2013-08-05 07:16:00,
2013-08-05 00:21:00,62.3,55.6,29.69,North,0,0.0,0.0,79,0.00,,,0.00,WUHU216HW,2013-08-05 07:21:00,
2013-08-05 00:26:00,62.1,55.5,29.68,North,0,0.0,0.0,79,0.00,,,0.00,WUHU216HW,2013-08-05 07:26:00,
2013-08-05 00:31:00,61.9,55.4,29.69,North,0,0.0,0.0,79,0.00,,,0.00,WUHU216HW,2013-08-05 07:31:00,
2013-08-05 00:35:00,61.9,55.4,29.69,North,0,0.0,0.0,79,0.00,,,0.00,WUHU216HW,2013-08-05 07:35:00,
2013-08-05 00:40:00,61.7,55.2,29.69,North,0,0.0,0.0,79,0.00,,,0.00,WUHU216HW,2013-08-05 07:40:00,
2013-08-05 00:46:00,61.6,55.0,29.68,North,0,0.0,0.0,79,0.00,,,0.00,WUHU216HW,2013-08-05 07:46:00,
2013-08-05 00:51:00,61.6,55.0,29.68,North,0,0.0,0.0,79,0.00,,,0.00,WUHU216HW,2013-08-05 07:51:00,
2013-08-05 00:56:00,61.4,54.8,29.69,North,0,0.0,0.0,79,0.00,,,0.00,WUHU216HW,2013-08-05 07:56:00,
2013-08-05 01:01:00,61.2,55.1,29.69,North,0,0.0,0.0,80,0.00,,,0.00,WUHU216HW,2013-08-05 08:01:00,
2013-08-05 01:06:00,60.8,54.7,29.69,North,0,0.0,0.0,80,0.00,,,0.00,WUHU216HW,2013-08-05 08:06:00,
2013-08-05 01:11:00,60.8,55.1,29.69,North,0,0.0,0.0,81,0.00,,,0.00,WUHU216HW,2013-08-05 08:11:00,
2013-08-05 01:16:00,60.7,54.9,29.69,North,0,0.0,0.0,81,0.00,,,0.00,WUHU216HW,2013-08-05 08:16:00,
2013-08-05 01:21:00,60.5,54.7,29.68,North,0,0.0,0.0,81,0.00,,,0.00,WUHU216HW,2013-08-05 08:21:00,
2013-08-05 01:26:00,60.5,54.7,29.68,North,0,0.0,0.0,81,0.00,,,0.00,WUHU216HW,2013-08-05 08:26:00,
2013-08-05 01:31:00,60.3,54.6,29.68,North,0,0.0,0.0,81,0.00,,,0.00,WUHU216HW,2013-08-05 08:31:00,
2013-08-05 01:37:00,60.1,54.4,29.68,North,0,0.0,0.0,81,0.00,,,0.00,WUHU216HW,2013-08-05 08:37:00,
2013-08-05 01:42:00,59.9,54.5,29.68,North,0,0.0,0.0,82,0.00,,,0.00,WUHU216HW,2013-08-05 08:42:00,
2013-08-05 01:47:00,59.8,54.3,29.68,North,0,0.0,0.0,82,0.00,,,0.00,WUHU216HW,2013-08-05 08:47:00,
2013-08-05 01:52:00,59.8,54.3,29.68,North,0,0.0,0.0,82,0.00,,,0.00,WUHU216HW,2013-08-05 08:52:00,
2013-08-05 01:57:00,59.6,54.5,29.68,North,0,0.0,0.0,83,0.00,,,0.00,WUHU216HW,2013-08-05 08:57:00,
2013-08-05 02:03:00,59.4,54.3,29.68,North,0,0.0,0.0,83,0.00,,,0.00,WUHU216HW,2013-08-05 09:03:00,
2013-08-05 02:08:00,59.0,54.2,29.68,North,0,0.0,0.0,84,0.00,,,0.00,WUHU216HW,2013-08-05 09:08:00,
2013-08-05 02:13:00,58.7,54.2,29.68,North,0,0.0,0.0,85,0.00,,,0.00,WUHU216HW,2013-08-05 09:13:00,
2013-08-05 02:18:00,58.7,54.2,29.68,North,0,0.0,0.0,85,0.00,,,0.00,WUHU216HW,2013-08-05 09:18:00,
2013-08-05 02:23:00,58.7,54.2,29.68,North,0,0.0,0.0,85,0.00,,,0.00,WUHU216HW,2013-08-05 09:23:00,
2013-08-05 02:28:00,58.7,53.8,29.68,North,0,0.0,0.0,84,0.00,,,0.00,WUHU216HW,2013-08-05 09:28:00,
2013-08-05 02:33:00,58.5,53.6,29.68,North,0,0.0,0.0,84,0.00,,,0.00,WUHU216HW,2013-08-05 09:33:00,
2013-08-05 02:39:00,58.5,53.6,29.68,North,0,0.0,0.0,84,0.00,,,0.00,WUHU216HW,2013-08-05 09:39:00,
2013-08-05 02:44:00,58.3,53.5,29.68,North,0,0.0,0.0,84,0.00,,,0.00,WUHU216HW,2013-08-05 09:44:00,
2013-08-05 02:49:00,58.3,53.5,29.68,North,0,0.0,0.0,84,0.00,,,0.00,WUHU216HW,2013-08-05 09:49:00,
2013-08-05 02:54:00,58.1,53.3,29.68,North,0,0.0,0.0,84,0.00,,,0.00,WUHU216HW,2013-08-05 09:54:00,
2013-08-05 02:59:00,58.0,53.1,29.68,North,0,0.0,0.0,84,0.00,,,0.00,WUHU216HW,2013-08-05 09:59:00,
2013-08-05 03:04:00,58.0,53.5,29.68,North,0,0.0,0.0,85,0.00,,,0.00,WUHU216HW,2013-08-05 10:04:00,
2013-08-05 03:09:00,57.8,52.9,29.68,North,0,0.0,0.0,84,0.00,,,0.00,WUHU216HW,2013-08-05 10:09:00,
2013-08-05 03:14:00,57.8,52.9,29.68,North,0,0.0,0.0,84,0.00,,,0.00,WUHU216HW,2013-08-05 10:14:00,
2013-08-05 03:19:00,57.6,52.7,29.68,North,0,0.0,0.0,84,0.00,,,0.00,WUHU216HW,2013-08-05 10:19:00,
2013-08-05 03:24:00,57.6,52.7,29.68,North,0,0.0,0.0,84,0.00,,,0.00,WUHU216HW,2013-08-05 10:24:00,
2013-08-05 03:30:00,57.4,52.9,29.68,North,0,0.0,0.0,85,0.00,,,0.00,WUHU216HW,2013-08-05 10:30:00,
2013-08-05 03:34:00,57.2,52.4,29.67,North,0,0.0,0.0,84,0.00,,,0.00,WUHU216HW,2013-08-05 10:34:00,
2013-08-05 03:40:00,57.2,52.4,29.68,North,0,0.0,0.0,84,0.00,,,0.00,WUHU216HW,2013-08-05 10:40:00,
2013-08-05 03:45:00,57.1,52.6,29.67,North,0,0.0,0.0,85,0.00,,,0.00,WUHU216HW,2013-08-05 10:45:00,
2013-08-05 03:50:00,56.9,52.4,29.67,North,0,0.0,0.0,85,0.00,,,0.00,WUHU216HW,2013-08-05 10:50:00,
2013-08-05 03:55:00,56.7,52.2,29.67,North,0,0.0,0.0,85,0.00,,,0.00,WUHU216HW,2013-08-05 10:55:00,
2013-08-05 04:00:00,56.5,52.0,29.67,North,0,0.0,0.0,85,0.00,,,0.00,WUHU216HW,2013-08-05 11:00:00,
2013-08-05 04:05:00,56.5,52.0,29.67,North,0,0.0,0.0,85,0.00,,,0.00,WUHU216HW,2013-08-05 11:05:00,
2013-08-05 04:10:00,56.5,52.0,29.67,North,0,0.0,0.0,85,0.00,,,0.00,WUHU216HW,2013-08-05 11:10:00,
2013-08-05 04:15:00,56.5,52.4,29.68,North,0,0.0,0.0,86,0.00,,,0.00,WUHU216HW,2013-08-05 11:15:00,
2013-08-05 04:21:00,56.3,52.2,29.67,North,0,0.0,0.0,86,0.00,,,0.00,WUHU216HW,2013-08-05 11:21:00,
2013-08-05 04:26:00,56.2,51.7,29.68,North,0,0.0,0.0,85,0.00,,,0.00,WUHU216HW,2013-08-05 11:26:00,
2013-08-05 04:31:00,56.2,52.0,29.68,North,0,0.0,0.0,86,0.00,,,0.00,WUHU216HW,2013-08-05 11:31:00,
2013-08-05 04:36:00,56.0,51.9,29.68,North,0,0.0,0.0,86,0.00,,,0.00,WUHU216HW,2013-08-05 11:36:00,
2013-08-05 04:41:00,55.8,51.7,29.68,North,0,0.0,0.0,86,0.00,,,0.00,WUHU216HW,2013-08-05 11:41:00,
2013-08-05 04:47:00,55.8,51.7,29.68,North,0,0.0,0.0,86,0.00,,,0.00,WUHU216HW,2013-08-05 11:47:00,
2013-08-05 04:52:00,55.6,51.5,29.68,North,0,0.0,0.0,86,0.00,,,0.00,WUHU216HW,2013-08-05 11:52:00,
2013-08-05 04:57:00,55.4,50.9,29.68,North,0,0.0,0.0,85,0.00,,,0.00,WUHU216HW,2013-08-05 11:57:00,
2013-08-05 05:02:00,55.4,50.9,29.68,North,0,0.0,0.0,85,0.00,,,0.00,WUHU216HW,2013-08-05 12:02:00,
2013-08-05 05:07:00,55.4,51.3,29.68,North,0,0.0,0.0,86,0.00,,,0.00,WUHU216HW,2013-08-05 12:07:00,
2013-08-05 05:12:00,55.3,51.1,29.68,North,0,0.0,0.0,86,0.00,,,0.00,WUHU216HW,2013-08-05 12:12:00,
2013-08-05 05:17:00,55.1,51.0,29.68,North,0,0.0,0.0,86,0.00,,,0.00,WUHU216HW,2013-08-05 12:17:00,
2013-08-05 05:22:00,55.1,51.0,29.68,North,0,0.0,0.0,86,0.00,,,0.00,WUHU216HW,2013-08-05 12:22:00,
2013-08-05 05:27:00,55.1,51.0,29.68,North,0,0.0,0.0,86,0.00,,,0.00,WUHU216HW,2013-08-05 12:27:00,
2013-08-05 05:32:00,55.1,51.0,29.68,North,0,0.0,0.0,86,0.00,,,0.00,WUHU216HW,2013-08-05 12:32:00,
2013-08-05 05:37:00,54.9,50.8,29.68,North,0,0.0,0.0,86,0.00,,,0.00,WUHU216HW,2013-08-05 12:37:00,
2013-08-05 05:42:00,54.7,50.6,29.68,North,0,0.0,0.0,86,0.00,,,0.00,WUHU216HW,2013-08-05 12:42:00,
2013-08-05 05:47:00,54.7,50.9,29.69,North,0,0.0,0.0,87,0.00,,,0.00,WUHU216HW,2013-08-05 12:47:00,
2013-08-05 05:53:00,54.5,51.0,29.69,North,0,0.0,0.0,88,0.00,,,0.00,WUHU216HW,2013-08-05 12:53:00,
2013-08-05 05:58:00,54.5,51.0,29.69,North,0,0.0,0.0,88,0.00,,,0.00,WUHU216HW,2013-08-05 12:58:00,
2013-08-05 06:02:00,54.5,51.0,29.69,North,0,0.0,0.0,88,0.00,,,0.00,WUHU216HW,2013-08-05 13:02:00,
2013-08-05 06:08:00,54.5,51.0,29.69,North,0,0.0,0.0,88,0.00,,,0.00,WUHU216HW,2013-08-05 13:08:00,
2013-08-05 06:13:00,54.5,51.0,29.69,North,0,0.0,0.0,88,0.00,,,0.00,WUHU216HW,2013-08-05 13:13:00,
2013-08-05 06:18:00,54.7,51.2,29.69,North,0,0.0,0.0,88,0.00,,,0.00,WUHU216HW,2013-08-05 13:18:00,
2013-08-05 06:23:00,54.7,51.2,29.69,North,0,0.0,0.0,88,0.00,,,0.00,WUHU216HW,2013-08-05 13:23:00,
2013-08-05 06:28:00,54.7,51.2,29.69,North,0,0.0,0.0,88,0.00,,,0.00,WUHU216HW,2013-08-05 13:28:00,
2013-08-05 06:33:00,54.9,51.4,29.69,North,0,0.0,0.0,88,0.00,,,0.00,WUHU216HW,2013-08-05 13:33:00,
2013-08-05 06:38:00,55.3,51.8,29.69,North,0,0.0,0.0,88,0.00,,,0.00,WUHU216HW,2013-08-05 13:38:00,
2013-08-05 06:43:00,55.6,52.1,29.70,North,0,0.0,0.0,88,0.00,,,0.00,WUHU216HW,2013-08-05 13:43:00,
2013-08-05 06:49:00,56.0,52.5,29.70,North,0,0.0,0.0,88,0.00,,,0.00,WUHU216HW,2013-08-05 13:49:00,
2013-08-05 06:54:00,56.5,53.0,29.70,North,0,0.0,0.0,88,0.00,,,0.00,WUHU216HW,2013-08-05 13:54:00,
2013-08-05 06:59:00,56.9,53.4,29.70,North,0,0.0,0.0,88,0.00,,,0.00,WUHU216HW,2013-08-05 13:59:00,
2013-08-05 07:04:00,57.2,53.4,29.70,North,0,0.0,0.0,87,0.00,,,0.00,WUHU216HW,2013-08-05 14:04:00,
2013-08-05 07:09:00,57.6,53.7,29.70,North,0,0.0,0.0,87,0.00,,,0.00,WUHU216HW,2013-08-05 14:09:00,
2013-08-05 07:15:00,58.0,54.1,29.70,North,0,0.0,0.0,87,0.00,,,0.00,WUHU216HW,2013-08-05 14:15:00,
2013-08-05 07:19:00,58.1,54.3,29.70,North,0,0.0,0.0,87,0.00,,,0.00,WUHU216HW,2013-08-05 14:19:00,
2013-08-05 07:25:00,58.5,54.6,29.70,North,0,0.0,0.0,87,0.00,,,0.00,WUHU216HW,2013-08-05 14:25:00,
2013-08-05 07:30:00,58.5,54.6,29.70,North,0,0.0,0.0,87,0.00,,,0.00,WUHU216HW,2013-08-05 14:30:00,
2013-08-05 07:35:00,58.7,54.8,29.70,North,0,0.0,0.0,87,0.00,,,0.00,WUHU216HW,2013-08-05 14:35:00,
2013-08-05 07:40:00,59.0,55.2,29.70,North,0,0.0,0.0,87,0.00,,,0.00,WUHU216HW,2013-08-05 14:40:00,
2013-08-05 07:45:00,59.4,55.3,29.70,North,0,0.0,0.0,86,0.00,,,0.00,WUHU216HW,2013-08-05 14:45:00,
2013-08-05 07:50:00,59.4,55.3,29.71,North,0,0.0,0.0,86,0.00,,,0.00,WUHU216HW,2013-08-05 14:50:00,
2013-08-05 07:55:00,59.8,55.9,29.71,North,0,0.0,0.0,87,0.00,,,0.00,WUHU216HW,2013-08-05 14:55:00,
2013-08-05 08:00:00,59.9,55.4,29.71,North,0,0.0,0.0,85,0.00,,,0.00,WUHU216HW,2013-08-05 15:00:00,
2013-08-05 08:06:00,60.1,55.6,29.71,North,0,0.0,0.0,85,0.00,,,0.00,WUHU216HW,2013-08-05 15:06:00,
2013-08-05 08:12:00,60.3,55.8,29.71,North,0,0.0,0.0,85,0.00,,,0.00,WUHU216HW,2013-08-05 15:12:00,
2013-08-05 08:17:00,60.8,56.3,29.71,North,0,0.0,0.0,85,0.00,,,0.00,WUHU216HW,2013-08-05 15:17:00,
2013-08-05 08:22:00,61.2,56.3,29.71,North,0,0.0,0.0,84,0.00,,,0.00,WUHU216HW,2013-08-05 15:22:00,
2013-08-05 08:27:00,61.7,56.5,29.71,North,0,0.0,0.0,83,0.00,,,0.00,WUHU216HW,2013-08-05 15:27:00,
2013-08-05 08:32:00,62.3,57.1,29.71,North,0,0.0,0.0,83,0.00,,,0.00,WUHU216HW,2013-08-05 15:32:00,
2013-08-05 08:37:00,62.8,56.9,29.71,North,0,0.0,0.0,81,0.00,,,0.00,WUHU216HW,2013-08-05 15:37:00,
2013-08-05 08:42:00,63.0,57.1,29.71,North,0,0.0,0.0,81,0.00,,,0.00,WUHU216HW,2013-08-05 15:42:00,
2013-08-05 08:47:00,63.4,57.4,29.71,North,0,0.0,0.0,81,0.00,,,0.00,WUHU216HW,2013-08-05 15:47:00,
2013-08-05 08:52:00,63.7,57.4,29.71,North,0,0.0,0.0,80,0.00,,,0.00,WUHU216HW,2013-08-05 15:52:00,
2013-08-05 08:58:00,64.4,58.1,29.71,North,0,0.0,0.0,80,0.00,,,0.00,WUHU216HW,2013-08-05 15:58:00,
2013-08-05 09:03:00,64.8,57.8,29.71,North,0,0.0,0.0,78,0.00,,,0.00,WUHU216HW,2013-08-05 16:03:00,
2013-08-05 09:09:00,65.2,58.5,29.71,North,0,0.0,0.0,79,0.00,,,0.00,WUHU216HW,2013-08-05 16:09:00,
2013-08-05 09:14:00,65.9,58.5,29.71,North,0,0.0,0.0,77,0.00,,,0.00,WUHU216HW,2013-08-05 16:14:00,
2013-08-05 09:19:00,66.6,59.6,29.71,North,0,0.0,0.0,78,0.00,,,0.00,WUHU216HW,2013-08-05 16:19:00,
2013-08-05 09:25:00,67.3,59.5,29.71,North,0,0.0,0.0,76,0.00,,,0.00,WUHU216HW,2013-08-05 16:25:00,
2013-08-05 09:30:00,67.9,59.7,29.71,North,0,0.0,0.0,75,0.00,,,0.00,WUHU216HW,2013-08-05 16:30:00,
2013-08-05 09:35:00,68.2,59.7,29.71,North,0,0.0,0.0,74,0.00,,,0.00,WUHU216HW,2013-08-05 16:35:00,
2013-08-05 09:40:00,68.8,60.1,29.71,North,0,0.0,0.0,74,0.00,,,0.00,WUHU216HW,2013-08-05 16:40:00,
2013-08-05 09:45:00,68.8,59.8,29.71,North,0,0.0,0.0,73,0.00,,,0.00,WUHU216HW,2013-08-05 16:45:00,
2013-08-05 09:50:00,68.9,59.5,29.71,North,0,0.0,0.0,72,0.00,,,0.00,WUHU216HW,2013-08-05 16:50:00,
2013-08-05 09:56:00,68.9,60.0,29.71,North,0,0.0,0.0,73,0.00,,,0.00,WUHU216HW,2013-08-05 16:56:00,
2013-08-05 10:01:00,69.1,60.0,29.71,North,0,0.0,0.0,73,0.00,,,0.00,WUHU216HW,2013-08-05 17:01:00,
2013-08-05 10:06:00,69.5,60.4,29.71,North,0,0.0,0.0,73,0.00,,,0.00,WUHU216HW,2013-08-05 17:06:00,
2013-08-05 10:11:00,70.0,60.5,29.71,North,0,0.0,0.0,72,0.00,,,0.00,WUHU216HW,2013-08-05 17:11:00,
2013-08-05 10:16:00,70.7,61.2,29.71,North,0,0.0,0.0,72,0.00,,,0.00,WUHU216HW,2013-08-05 17:16:00,
2013-08-05 10:22:00,71.3,61.4,29.71,North,0,0.0,0.0,71,0.00,,,0.00,WUHU216HW,2013-08-05 17:22:00,
2013-08-05 10:27:00,71.8,61.6,29.71,North,0,0.0,0.0,70,0.00,,,0.00,WUHU216HW,2013-08-05 17:27:00,
2013-08-05 10:32:00,72.4,61.7,29.71,North,0,0.0,0.0,69,0.00,,,0.00,WUHU216HW,2013-08-05 17:32:00,
2013-08-05 10:37:00,72.5,61.4,29.71,North,0,0.0,0.0,68,0.00,,,0.00,WUHU216HW,2013-08-05 17:37:00,
2013-08-05 10:42:00,73.1,61.9,29.71,North,0,0.0,0.0,68,0.00,,,0.00,WUHU216HW,2013-08-05 17:42:00,
2013-08-05 10:47:00,73.1,60.1,29.71,North,0,0.0,0.0,64,0.00,,,0.00,WUHU216HW,2013-08-05 17:47:00,
2013-08-05 10:52:00,72.4,60.3,29.71,North,0,0.0,0.0,66,0.00,,,0.00,WUHU216HW,2013-08-05 17:52:00,
2013-08-05 10:57:00,72.5,60.5,29.71,North,0,0.0,0.0,66,0.00,,,0.00,WUHU216HW,2013-08-05 17:57:00,
2013-08-05 11:02:00,72.7,61.1,29.71,North,0,0.0,0.0,67,0.00,,,0.00,WUHU216HW,2013-08-05 18:02:00,
2013-08-05 11:08:00,73.1,61.0,29.71,North,0,0.0,0.0,66,0.00,,,0.00,WUHU216HW,2013-08-05 18:08:00,
2013-08-05 11:13:00,73.4,61.8,29.71,North,0,0.0,0.0,67,0.00,,,0.00,WUHU216HW,2013-08-05 18:13:00,
2013-08-05 11:18:00,74.2,62.1,29.71,North,0,0.0,0.0,66,0.00,,,0.00,WUHU216HW,2013-08-05 18:18:00,
2013-08-05 11:23:00,74.5,61.9,29.71,North,0,0.0,0.0,65,0.00,,,0.00,WUHU216HW,2013-08-05 18:23:00,
2013-08-05 11:28:00,74.3,61.8,29.71,North,0,0.0,0.0,65,0.00,,,0.00,WUHU216HW,2013-08-05 18:28:00,
2013-08-05 11:33:00,74.5,61.9,29.71,North,0,0.0,0.0,65,0.00,,,0.00,WUHU216HW,2013-08-05 18:33:00,
2013-08-05 11:39:00,74.5,61.6,29.71,North,0,0.0,0.0,64,0.00,,,0.00,WUHU216HW,2013-08-05 18:39:00,
2013-08-05 11:44:00,74.5,61.1,29.71,North,0,0.0,0.0,63,0.00,,,0.00,WUHU216HW,2013-08-05 18:44:00,
2013-08-05 11:49:00,74.7,61.7,29.71,North,0,0.0,0.0,64,0.00,,,0.00,WUHU216HW,2013-08-05 18:49:00,
2013-08-05 11:54:00,75.4,62.4,29.70,North,0,0.0,0.0,64,0.00,,,0.00,WUHU216HW,2013-08-05 18:54:00,
2013-08-05 11:59:00,76.1,63.1,29.71,North,0,0.0,0.0,64,0.00,,,0.00,WUHU216HW,2013-08-05 18:59:00,
2013-08-05 12:04:00,76.0,61.1,29.71,North,0,0.0,0.0,60,0.00,,,0.00,WUHU216HW,2013-08-05 19:04:00,
2013-08-05 12:09:00,75.8,62.3,29.70,North,0,0.0,0.0,63,0.00,,,0.00,WUHU216HW,2013-08-05 19:09:00,
2013-08-05 12:14:00,76.0,62.0,29.70,North,0,0.0,0.0,62,0.00,,,0.00,WUHU216HW,2013-08-05 19:14:00,
2013-08-05 12:19:00,76.5,62.9,29.70,North,0,0.0,0.0,63,0.00,,,0.00,WUHU216HW,2013-08-05 19:19:00,
2013-08-05 12:25:00,76.7,62.6,29.70,North,0,0.0,0.0,62,0.00,,,0.00,WUHU216HW,2013-08-05 19:25:00,
2013-08-05 12:30:00,77.4,63.4,29.69,North,0,0.0,0.0,62,0.00,,,0.00,WUHU216HW,2013-08-05 19:30:00,
2013-08-05 12:35:00,78.1,63.6,29.69,North,0,0.0,0.0,61,0.00,,,0.00,WUHU216HW,2013-08-05 19:35:00,
2013-08-05 12:40:00,78.5,63.5,29.69,North,0,0.0,0.0,60,0.00,,,0.00,WUHU216HW,2013-08-05 19:40:00,
2013-08-05 12:45:00,77.9,62.5,29.70,North,0,0.0,0.0,59,0.00,,,0.00,WUHU216HW,2013-08-05 19:45:00,
2013-08-05 12:51:00,77.6,62.6,29.70,North,0,0.0,0.0,60,0.00,,,0.00,WUHU216HW,2013-08-05 19:51:00,
2013-08-05 12:56:00,78.1,63.6,29.70,North,0,0.0,0.0,61,0.00,,,0.00,WUHU216HW,2013-08-05 19:56:00,
2013-08-05 13:01:00,78.8,63.9,29.69,North,0,0.0,0.0,60,0.00,,,0.00,WUHU216HW,2013-08-05 20:01:00,
2013-08-05 13:06:00,79.2,64.3,29.69,North,0,0.0,0.0,60,0.00,,,0.00,WUHU216HW,2013-08-05 20:06:00,
2013-08-05 13:12:00,79.7,63.6,29.69,North,0,0.0,0.0,58,0.00,,,0.00,WUHU216HW,2013-08-05 20:12:00,
2013-08-05 13:17:00,79.9,63.3,29.69,North,0,0.0,0.0,57,0.00,,,0.00,WUHU216HW,2013-08-05 20:17:00,
2013-08-05 13:22:00,79.7,64.2,29.69,North,0,0.0,0.0,59,0.00,,,0.00,WUHU216HW,2013-08-05 20:22:00,
2013-08-05 13:27:00,79.9,64.4,29.69,North,0,0.0,0.0,59,0.00,,,0.00,WUHU216HW,2013-08-05 20:27:00,
2013-08-05 13:32:00,80.1,64.0,29.68,North,0,0.0,0.0,58,0.00,,,0.00,WUHU216HW,2013-08-05 20:32:00,
2013-08-05 13:38:00,79.9,63.8,29.68,North,0,0.0,0.0,58,0.00,,,0.00,WUHU216HW,2013-08-05 20:38:00,
2013-08-05 13:43:00,80.3,64.2,29.68,North,0,0.0,0.0,58,0.00,,,0.00,WUHU216HW,2013-08-05 20:43:00,
2013-08-05 13:48:00,80.6,64.0,29.68,North,0,0.0,0.0,57,0.00,,,0.00,WUHU216HW,2013-08-05 20:48:00,
2013-08-05 13:53:00,81.0,64.3,29.68,North,0,0.0,0.0,57,0.00,,,0.00,WUHU216HW,2013-08-05 20:53:00,
2013-08-05 13:58:00,81.7,64.5,29.68,North,0,0.0,0.0,56,0.00,,,0.00,WUHU216HW,2013-08-05 20:58:00,
2013-08-05 14:03:00,81.7,64.5,29.68,North,0,0.0,0.0,56,0.00,,,0.00,WUHU216HW,2013-08-05 21:03:00,
2013-08-05 14:08:00,81.9,64.5,29.68,North,0,0.0,0.0,56,0.00,,,0.00,WUHU216HW,2013-08-05 21:08:00,
2013-08-05 14:13:00,82.3,64.4,29.68,North,0,0.0,0.0,55,0.00,,,0.00,WUHU216HW,2013-08-05 21:13:00,
2013-08-05 14:18:00,82.6,64.7,29.68,North,0,0.0,0.0,55,0.00,,,0.00,WUHU216HW,2013-08-05 21:18:00,
2013-08-05 14:23:00,83.0,65.6,29.68,North,0,0.0,0.0,56,0.00,,,0.00,WUHU216HW,2013-08-05 21:23:00,
2013-08-05 14:28:00,83.3,65.4,29.68,North,0,0.0,0.0,55,0.00,,,0.00,WUHU216HW,2013-08-05 21:28:00,
2013-08-05 14:33:00,83.5,65.1,29.68,North,0,0.0,0.0,54,0.00,,,0.00,WUHU216HW,2013-08-05 21:33:00,
2013-08-05 14:38:00,83.9,65.4,29.67,North,0,0.0,0.0,54,0.00,,,0.00,WUHU216HW,2013-08-05 21:38:00,
2013-08-05 14:44:00,83.9,64.9,29.67,North,0,0.0,0.0,53,0.00,,,0.00,WUHU216HW,2013-08-05 21:44:00,
2013-08-05 14:49:00,83.7,64.7,29.67,North,0,0.0,0.0,53,0.00,,,0.00,WUHU216HW,2013-08-05 21:49:00,
2013-08-05 14:54:00,83.9,64.9,29.67,North,0,0.0,0.0,53,0.00,,,0.00,WUHU216HW,2013-08-05 21:54:00,
2013-08-05 14:59:00,83.9,65.4,29.67,North,0,0.0,0.0,54,0.00,,,0.00,WUHU216HW,2013-08-05 21:59:00,
2013-08-05 15:04:00,83.9,64.5,29.67,North,0,0.0,0.0,52,0.00,,,0.00,WUHU216HW,2013-08-05 22:04:00,
2013-08-05 15:09:00,83.7,63.2,29.67,North,0,0.0,0.0,50,0.00,,,0.00,WUHU216HW,2013-08-05 22:09:00,
2013-08-05 15:14:00,83.3,62.8,29.67,North,0,0.0,0.0,50,0.00,,,0.00,WUHU216HW,2013-08-05 22:14:00,
2013-08-05 15:19:00,83.2,63.2,29.66,North,0,0.0,0.0,51,0.00,,,0.00,WUHU216HW,2013-08-05 22:19:00,
2013-08-05 15:24:00,83.3,63.4,29.66,North,0,0.0,0.0,51,0.00,,,0.00,WUHU216HW,2013-08-05 22:24:00,
2013-08-05 15:29:00,83.3,63.4,29.66,North,0,0.0,0.0,51,0.00,,,0.00,WUHU216HW,2013-08-05 22:29:00,
2013-08-05 15:34:00,83.3,63.9,29.66,North,0,0.0,0.0,52,0.00,,,0.00,WUHU216HW,2013-08-05 22:34:00,
2013-08-05 15:39:00,83.5,63.6,29.66,North,0,0.0,0.0,51,0.00,,,0.00,WUHU216HW,2013-08-05 22:39:00,
2013-08-05 15:44:00,83.7,64.3,29.65,North,0,0.0,0.0,52,0.00,,,0.00,WUHU216HW,2013-08-05 22:44:00,
2013-08-05 15:49:00,83.7,64.3,29.65,North,0,0.0,0.0,52,0.00,,,0.00,WUHU216HW,2013-08-05 22:49:00,
2013-08-05 15:54:00,83.5,64.1,29.65,North,0,0.0,0.0,52,0.00,,,0.00,WUHU216HW,2013-08-05 22:54:00,
2013-08-05 15:59:00,83.3,63.9,29.65,North,0,0.0,0.0,52,0.00,,,0.00,WUHU216HW,2013-08-05 22:59:00,
2013-08-05 16:04:00,83.0,64.0,29.65,North,0,0.0,0.0,53,0.00,,,0.00,WUHU216HW,2013-08-05 23:04:00,
2013-08-05 16:10:00,82.8,63.8,29.65,North,0,0.0,0.0,53,0.00,,,0.00,WUHU216HW,2013-08-05 23:10:00,
2013-08-05 16:15:00,82.8,63.8,29.65,North,0,0.0,0.0,53,0.00,,,0.00,WUHU216HW,2013-08-05 23:15:00,
2013-08-05 16:20:00,82.6,63.6,29.65,North,0,0.0,0.0,53,0.00,,,0.00,WUHU216HW,2013-08-05 23:20:00,
2013-08-05 16:25:00,82.8,63.4,29.65,North,0,0.0,0.0,52,0.00,,,0.00,WUHU216HW,2013-08-05 23:25:00,
2013-08-05 16:30:00,83.2,63.2,29.64,North,0,0.0,0.0,51,0.00,,,0.00,WUHU216HW,2013-08-05 23:30:00,
2013-08-05 16:35:00,83.2,63.2,29.64,North,0,0.0,0.0,51,0.00,,,0.00,WUHU216HW,2013-08-05 23:35:00,
2013-08-05 16:40:00,83.0,62.5,29.65,North,0,0.0,0.0,50,0.00,,,0.00,WUHU216HW,2013-08-05 23:40:00,
2013-08-05 16:46:00,83.0,63.0,29.64,North,0,0.0,0.0,51,0.00,,,0.00,WUHU216HW,2013-08-05 23:46:00,
2013-08-05 16:51:00,83.0,63.6,29.64,North,0,0.0,0.0,52,0.00,,,0.00,WUHU216HW,2013-08-05 23:51:00,
2013-08-05 16:56:00,82.8,62.8,29.64,North,0,0.0,0.0,51,0.00,,,0.00,WUHU216HW,2013-08-05 23:56:00,
2013-08-05 17:01:00,82.6,62.7,29.64,North,0,0.0,0.0,51,0.00,,,0.00,WUHU216HW,2013-08-06 00:01:00,
2013-08-05 17:06:00,82.4,62.5,29.64,North,0,0.0,0.0,51,0.00,,,0.00,WUHU216HW,2013-08-06 00:06:00,
2013-08-05 17:12:00,82.3,62.3,29.64,North,0,0.0,0.0,51,0.00,,,0.00,WUHU216HW,2013-08-06 00:12:00,
2013-08-05 17:17:00,82.3,61.7,29.63,North,0,0.0,0.0,50,0.00,,,0.00,WUHU216HW,2013-08-06 00:17:00,
2013-08-05 17:22:00,82.1,61.6,29.64,North,0,0.0,0.0,50,0.00,,,0.00,WUHU216HW,2013-08-06 00:22:00,
2013-08-05 17:28:00,81.9,61.5,29.64,North,0,0.0,0.0,50,0.00,,,0.00,WUHU216HW,2013-08-06 00:28:00,
2013-08-05 17:33:00,82.1,61.0,29.63,North,0,0.0,0.0,49,0.00,,,0.00,WUHU216HW,2013-08-06 00:33:00,
2013-08-05 17:38:00,82.1,61.0,29.64,North,0,0.0,0.0,49,0.00,,,0.00,WUHU216HW,2013-08-06 00:38:00,
2013-08-05 17:43:00,82.1,61.0,29.63,North,0,0.0,0.0,49,0.00,,,0.00,WUHU216HW,2013-08-06 00:43:00,
2013-08-05 17:48:00,81.9,60.9,29.63,North,0,0.0,0.0,49,0.00,,,0.00,WUHU216HW,2013-08-06 00:48:00,
2013-08-05 17:54:00,81.7,60.7,29.63,North,0,0.0,0.0,49,0.00,,,0.00,WUHU216HW,2013-08-06 00:54:00,
2013-08-05 17:59:00,81.7,61.3,29.63,North,0,0.0,0.0,50,0.00,,,0.00,WUHU216HW,2013-08-06 00:59:00,
2013-08-05 18:04:00,81.4,60.9,29.63,North,0,0.0,0.0,50,0.00,,,0.00,WUHU216HW,2013-08-06 01:04:00,
2013-08-05 18:09:00,81.4,60.9,29.63,North,0,0.0,0.0,50,0.00,,,0.00,WUHU216HW,2013-08-06 01:09:00,
2013-08-05 18:14:00,81.2,60.8,29.63,North,0,0.0,0.0,50,0.00,,,0.00,WUHU216HW,2013-08-06 01:14:00,
2013-08-05 18:19:00,81.2,60.2,29.63,North,0,0.0,0.0,49,0.00,,,0.00,WUHU216HW,2013-08-06 01:19:00,
2013-08-05 18:25:00,80.6,60.3,29.63,North,0,0.0,0.0,50,0.00,,,0.00,WUHU216HW,2013-08-06 01:25:00,
2013-08-05 18:30:00,80.5,59.5,29.63,North,0,0.0,0.0,49,0.00,,,0.00,WUHU216HW,2013-08-06 01:30:00,
2013-08-05 18:35:00,80.3,59.4,29.63,North,0,0.0,0.0,49,0.00,,,0.00,WUHU216HW,2013-08-06 01:35:00,
2013-08-05 18:40:00,80.3,59.4,29.64,North,0,0.0,0.0,49,0.00,,,0.00,WUHU216HW,2013-08-06 01:40:00,
2013-08-05 18:45:00,80.1,59.2,29.64,North,0,0.0,0.0,49,0.00,,,0.00,WUHU216HW,2013-08-06 01:45:00,
2013-08-05 18:50:00,79.7,58.2,29.63,North,0,0.0,0.0,48,0.00,,,0.00,WUHU216HW,2013-08-06 01:50:00,
2013-08-05 18:56:00,79.6,58.2,29.63,North,0,0.0,0.0,48,0.00,,,0.00,WUHU216HW,2013-08-06 01:56:00,
2013-08-05 19:01:00,79.6,58.2,29.63,North,0,0.0,0.0,48,0.00,,,0.00,WUHU216HW,2013-08-06 02:01:00,
2013-08-05 19:07:00,79.4,58.0,29.64,North,0,0.0,0.0,48,0.00,,,0.00,WUHU216HW,2013-08-06 02:07:00,
2013-08-05 19:12:00,79.2,57.8,29.63,North,0,0.0,0.0,48,0.00,,,0.00,WUHU216HW,2013-08-06 02:12:00,
2013-08-05 19:17:00,79.0,57.6,29.63,North,0,0.0,0.0,48,0.00,,,0.00,WUHU216HW,2013-08-06 02:17:00,
2013-08-05 19:22:00,78.8,57.4,29.63,North,0,0.0,0.0,48,0.00,,,0.00,WUHU216HW,2013-08-06 02:22:00,
2013-08-05 19:27:00,78.8,58.1,29.63,North,0,0.0,0.0,49,0.00,,,0.00,WUHU216HW,2013-08-06 02:27:00,
2013-08-05 19:32:00,78.7,57.9,29.64,North,0,0.0,0.0,49,0.00,,,0.00,WUHU216HW,2013-08-06 02:32:00,
2013-08-05 19:38:00,78.5,58.3,29.63,North,0,0.0,0.0,50,0.00,,,0.00,WUHU216HW,2013-08-06 02:38:00,
2013-08-05 19:43:00,77.8,58.2,29.64,North,0,0.0,0.0,51,0.00,,,0.00,WUHU216HW,2013-08-06 02:43:00,
2013-08-05 19:48:00,77.4,58.4,29.64,North,0,0.0,0.0,52,0.00,,,0.00,WUHU216HW,2013-08-06 02:48:00,
2013-08-05 19:53:00,77.0,58.6,29.64,North,0,0.0,0.0,53,0.00,,,0.00,WUHU216HW,2013-08-06 02:53:00,
2013-08-05 19:59:00,76.9,59.0,29.64,North,0,0.0,0.0,54,0.00,,,0.00,WUHU216HW,2013-08-06 02:59:00,
2013-08-05 20:04:00,76.3,59.0,29.64,North,0,0.0,0.0,55,0.00,,,0.00,WUHU216HW,2013-08-06 03:04:00,
2013-08-05 20:09:00,76.0,59.1,29.64,North,0,0.0,0.0,56,0.00,,,0.00,WUHU216HW,2013-08-06 03:09:00,
2013-08-05 20:14:00,75.6,58.3,29.64,North,0,0.0,0.0,55,0.00,,,0.00,WUHU216HW,2013-08-06 03:14:00,
2013-08-05 20:20:00,75.2,58.0,29.64,North,0,0.0,0.0,55,0.00,,,0.00,WUHU216HW,2013-08-06 03:20:00,
2013-08-05 20:25:00,74.7,57.4,29.64,North,0,0.0,0.0,55,0.00,,,0.00,WUHU216HW,2013-08-06 03:25:00,
2013-08-05 20:30:00,74.2,57.4,29.65,North,0,0.0,0.0,56,0.00,,,0.00,WUHU216HW,2013-08-06 03:30:00,
2013-08-05 20:35:00,73.8,58.1,29.65,North,0,0.0,0.0,58,0.00,,,0.00,WUHU216HW,2013-08-06 03:35:00,
2013-08-05 20:41:00,73.1,56.9,29.65,North,0,0.0,0.0,57,0.00,,,0.00,WUHU216HW,2013-08-06 03:41:00,
2013-08-05 20:46:00,72.4,56.2,29.65,North,0,0.0,0.0,57,0.00,,,0.00,WUHU216HW,2013-08-06 03:46:00,
2013-08-05 20:51:00,72.0,56.3,29.65,North,0,0.0,0.0,58,0.00,,,0.00,WUHU216HW,2013-08-06 03:51:00,
2013-08-05 20:56:00,71.5,56.4,29.65,North,0,0.0,0.0,59,0.00,,,0.00,WUHU216HW,2013-08-06 03:56:00,
2013-08-05 21:01:00,71.1,56.6,29.65,North,0,0.0,0.0,60,0.00,,,0.00,WUHU216HW,2013-08-06 04:01:00,
2013-08-05 21:06:00,70.7,55.7,29.65,North,0,0.0,0.0,59,0.00,,,0.00,WUHU216HW,2013-08-06 04:06:00,
2013-08-05 21:11:00,70.4,55.9,29.65,North,0,0.0,0.0,60,0.00,,,0.00,WUHU216HW,2013-08-06 04:11:00,
2013-08-05 21:16:00,69.8,55.4,29.65,North,0,0.0,0.0,60,0.00,,,0.00,WUHU216HW,2013-08-06 04:16:00,
2013-08-05 21:21:00,69.5,55.5,29.65,North,0,0.0,0.0,61,0.00,,,0.00,WUHU216HW,2013-08-06 04:21:00,
2013-08-05 21:26:00,68.9,55.4,29.65,North,0,0.0,0.0,62,0.00,,,0.00,WUHU216HW,2013-08-06 04:26:00,
2013-08-05 21:31:00,68.4,54.9,29.66,North,0,0.0,0.0,62,0.00,,,0.00,WUHU216HW,2013-08-06 04:31:00,
2013-08-05 21:36:00,68.0,54.9,29.66,North,0,0.0,0.0,63,0.00,,,0.00,WUHU216HW,2013-08-06 04:36:00,
2013-08-05 21:41:00,67.7,55.0,29.66,North,0,0.0,0.0,64,0.00,,,0.00,WUHU216HW,2013-08-06 04:41:00,
2013-08-05 21:46:00,67.3,55.1,29.66,North,0,0.0,0.0,65,0.00,,,0.00,WUHU216HW,2013-08-06 04:46:00,
2013-08-05 21:51:00,67.0,55.2,29.66,North,0,0.0,0.0,66,0.00,,,0.00,WUHU216HW,2013-08-06 04:51:00,
2013-08-05 21:56:00,66.6,54.8,29.66,North,0,0.0,0.0,66,0.00,,,0.00,WUHU216HW,2013-08-06 04:56:00,
2013-08-05 22:01:00,66.2,54.9,29.66,North,0,0.0,0.0,67,0.00,,,0.00,WUHU216HW,2013-08-06 05:01:00,
2013-08-05 22:06:00,65.9,54.5,29.66,North,0,0.0,0.0,67,0.00,,,0.00,WUHU216HW,2013-08-06 05:06:00,
2013-08-05 22:11:00,65.7,54.5,29.67,North,0,0.0,0.0,67,0.00,,,0.00,WUHU216HW,2013-08-06 05:11:00,
2013-08-05 22:16:00,65.5,54.3,29.67,North,0,0.0,0.0,67,0.00,,,0.00,WUHU216HW,2013-08-06 05:16:00,
2013-08-05 22:21:00,65.3,54.1,29.67,North,0,0.0,0.0,67,0.00,,,0.00,WUHU216HW,2013-08-06 05:21:00,
2013-08-05 22:26:00,65.2,53.5,29.67,North,0,0.0,0.0,66,0.00,,,0.00,WUHU216HW,2013-08-06 05:26:00,
2013-08-05 22:31:00,65.0,53.7,29.67,North,0,0.0,0.0,67,0.00,,,0.00,WUHU216HW,2013-08-06 05:31:00,
2013-08-05 22:36:00,64.8,54.0,29.67,North,0,0.0,0.0,68,0.00,,,0.00,WUHU216HW,2013-08-06 05:36:00,
2013-08-05 22:41:00,64.4,53.6,29.67,North,0,0.0,0.0,68,0.00,,,0.00,WUHU216HW,2013-08-06 05:41:00,
2013-08-05 22:46:00,64.1,53.3,29.67,North,0,0.0,0.0,68,0.00,,,0.00,WUHU216HW,2013-08-06 05:46:00,
2013-08-05 22:51:00,63.9,53.2,29.67,North,0,0.0,0.0,68,0.00,,,0.00,WUHU216HW,2013-08-06 05:51:00,
2013-08-05 22:56:00,63.7,53.0,29.67,North,0,0.0,0.0,68,0.00,,,0.00,WUHU216HW,2013-08-06 05:56:00,
2013-08-05 23:01:00,63.5,52.8,29.67,North,0,0.0,0.0,68,0.00,,,0.00,WUHU216HW,2013-08-06 06:01:00,
2013-08-05 23:06:00,63.4,52.7,29.67,North,0,0.0,0.0,68,0.00,,,0.00,WUHU216HW,2013-08-06 06:06:00,
2013-08-05 23:11:00,63.2,52.5,29.67,North,0,0.0,0.0,68,0.00,,,0.00,WUHU216HW,2013-08-06 06:11:00,
2013-08-05 23:16:00,63.0,52.3,29.67,North,0,0.0,0.0,68,0.00,,,0.00,WUHU216HW,2013-08-06 06:16:00,
2013-08-05 23:21:00,62.8,52.5,29.67,North,0,0.0,0.0,69,0.00,,,0.00,WUHU216HW,2013-08-06 06:21:00,
2013-08-05 23:26:00,62.6,52.3,29.67,North,0,0.0,0.0,69,0.00,,,0.00,WUHU216HW,2013-08-06 06:26:00,
2013-08-05 23:31:00,62.3,52.0,29.67,North,0,0.0,0.0,69,0.00,,,0.00,WUHU216HW,2013-08-06 06:31:00,
2013-08-05 23:36:00,62.3,52.0,29.67,North,0,0.0,0.0,69,0.00,,,0.00,WUHU216HW,2013-08-06 06:36:00,
2013-08-05 23:41:00,62.1,51.8,29.67,North,0,0.0,0.0,69,0.00,,,0.00,WUHU216HW,2013-08-06 06:41:00,
2013-08-05 23:46:00,61.9,51.7,29.67,North,0,0.0,0.0,69,0.00,,,0.00,WUHU216HW,2013-08-06 06:46:00,
2013-08-05 23:51:00,61.9,51.7,29.67,North,0,0.0,0.0,69,0.00,,,0.00,WUHU216HW,2013-08-06 06:51:00,
2013-08-05 23:56:00,61.6,51.4,29.67,North,0,0.0,0.0,69,0.00,,,0.00,WUHU216HW,2013-08-06 06:56:00,